QSA weather

Sabadell Airport
Sabadell, Catalonia, Spain

Public forecast

Using degrees Celsius for public forecast. Weather courtesy of forecast.io.

METAR (pilot weather report)

Retrieved 2019/09/22 13:30 UTC (0 seconds ago):

LELL 221330Z 24009KT 210V280 9999 FEW040 29/17 Q1010

TAF (pilot weather forecast)

Retrieved 2019/09/22 15:27 UTC (0 seconds ago):

TAF LELL 221400Z 2215/2315 25008KT 9999 BKN025 TX26/2313Z TN15/2305Z PROB40 TEMPO 2215/2218 TS FEW030CB BECMG 2220/2222 30004KT